Time;durP1;ratioP1;P1;durP2;ratioP2;P2;SDS_P1;SDS_P2;PMS_P1;PMS_P2;Temp;Humidity;BMP_temperature;BMP_pressure;BME280_temperature;BME280_humidity;BME280_pressure;Samples;Min_cycle;Max_cycle;Signal;HPM_P1;HPM_P2
2021/06/06 00:08:02;;;;;;;9.35;3.88;;;14.60;99.90;;;;;;20811646;28;20037;-50
2021/06/06 00:18:04;;;;;;;12.82;3.95;;;14.60;99.90;;;;;;20807313;28;20044;-50
2021/06/06 00:28:06;;;;;;;8.75;3.75;;;14.60;99.90;;;;;;20811953;28;20146;-50
2021/06/06 00:38:07;;;;;;;14.50;4.38;;;14.50;99.90;;;;;;20812892;28;20044;-50
2021/06/06 00:48:09;;;;;;;18.73;6.57;;;14.50;99.90;;;;;;20809729;28;20076;-50
2021/06/06 00:58:13;;;;;;;14.38;5.35;;;14.50;99.90;;;;;;20806648;28;20051;-50
2021/06/06 01:08:17;;;;;;;15.15;5.85;;;14.50;99.90;;;;;;20806807;28;20044;-50
2021/06/06 01:18:25;;;;;;;16.92;5.18;;;14.50;99.90;;;;;;20807248;28;20398;-50
2021/06/06 01:28:36;;;;;;;18.38;6.88;;;14.40;99.90;;;;;;20800089;28;20060;-50
2021/06/06 01:38:44;;;;;;;18.05;6.45;;;14.40;99.90;;;;;;20807524;28;20134;-50
2021/06/06 01:48:45;;;;;;;;;;;14.60;99.90;;;;;;20811065;28;20107;-50
2021/06/06 01:58:52;;;;;;;14.63;5.25;;;14.40;99.90;;;;;;20799436;28;19913;-50
2021/06/06 02:08:56;;;;;;;13.27;4.55;;;14.30;99.90;;;;;;20803571;28;20075;-50
2021/06/06 02:18:57;;;;;;;14.57;5.13;;;14.50;99.90;;;;;;20800995;28;20033;-50
2021/06/06 02:29:07;;;;;;;17.95;6.10;;;14.30;99.90;;;;;;20801623;28;20045;-50
2021/06/06 02:39:58;;;;;;;12.38;4.45;;;14.40;99.90;;;;;;21469486;23;20091;-92
2021/06/06 02:51:00;;;;;;;10.95;4.50;;;14.30;99.90;;;;;;20998058;28;20060;-93
2021/06/06 03:02:19;;;;;;;10.95;3.75;;;14.50;99.90;;;;;;20984628;28;20060;-92
2021/06/06 03:13:46;;;;;;;9.18;3.30;;;14.30;99.90;;;;;;20959509;28;20046;-93
2021/06/06 03:25:09;;;;;;;6.18;2.25;;;14.20;99.90;;;;;;20931950;28;20041;-93
2021/06/06 03:36:27;;;;;;;4.60;2.17;;;14.30;99.90;;;;;;20945083;28;20029;-92
2021/06/06 03:47:25;;;;;;;5.70;2.63;;;14.20;99.90;;;;;;20861858;28;20075;-92
2021/06/06 03:58:25;;;;;;;9.18;2.08;;;14.20;99.90;;;;;;20872165;28;20047;-92
2021/06/06 04:09:24;;;;;;;6.25;3.03;;;14.10;99.90;;;;;;20895481;28;20048;-93
2021/06/06 04:20:20;;;;;;;5.18;2.00;;;14.10;99.90;;;;;;20921596;28;20040;-92
2021/06/06 04:31:56;;;;;;;5.47;2.42;;;14.00;99.90;;;;;;20895761;28;20129;-91
2021/06/06 04:42:57;;;;;;;7.00;2.95;;;13.90;99.90;;;;;;20909531;28;20076;-92
2021/06/06 04:54:03;;;;;;;5.85;3.08;;;14.10;99.90;;;;;;20902892;28;20405;-93
2021/06/06 05:05:11;;;;;;;6.53;2.58;;;13.80;99.90;;;;;;20878156;28;20051;-93
2021/06/06 05:16:22;;;;;;;8.32;3.05;;;14.00;99.90;;;;;;20934451;28;20071;-92
2021/06/06 05:27:20;;;;;;;8.07;2.70;;;13.90;99.90;;;;;;20944486;28;20052;-93
2021/06/06 05:49:56;;;;;;;7.35;3.60;;;14.30;99.90;;;;;;20842742;28;20553;-93
2021/06/06 06:01:40;;;;;;;11.15;4.18;;;14.40;99.90;;;;;;20954834;28;20052;-93
2021/06/06 06:13:18;;;;;;;8.32;3.20;;;14.80;99.90;;;;;;20950520;28;20052;-93
2021/06/06 06:36:12;;;;;;;11.82;5.30;;;14.80;99.90;;;;;;20963885;28;20048;-92
2021/06/06 06:46:23;;;;;;;10.95;3.80;;;14.80;99.90;;;;;;20854312;22;20136;-49
2021/06/06 06:56:27;;;;;;;13.40;4.75;;;15.30;99.90;;;;;;20857730;28;20045;-49
2021/06/06 07:06:28;;;;;;;9.93;5.57;;;15.10;99.90;;;;;;20860892;28;20048;-49
2021/06/06 07:16:30;;;;;;;12.82;4.60;;;15.30;99.90;;;;;;20863980;28;20051;-50
2021/06/06 07:26:52;;;;;;;9.43;3.30;;;15.70;99.90;;;;;;20830309;28;20056;-50
2021/06/06 07:36:55;;;;;;;7.97;2.35;;;15.80;99.90;;;;;;20901018;28;20123;-50
2021/06/06 07:46:57;;;;;;;3.90;1.48;;;15.90;99.90;;;;;;20955394;28;20048;-48
2021/06/06 07:57:00;;;;;;;4.28;1.30;;;16.20;99.90;;;;;;20963374;28;20135;-48
2021/06/06 08:07:01;;;;;;;3.78;1.40;;;16.40;99.90;;;;;;20961765;28;20049;-48
2021/06/06 08:17:03;;;;;;;2.00;1.02;;;16.60;99.90;;;;;;20964546;28;20124;-49
2021/06/06 08:27:06;;;;;;;3.05;0.90;;;17.20;99.90;;;;;;20960936;28;20052;-47
2021/06/06 08:37:07;;;;;;;2.25;1.00;;;17.30;99.90;;;;;;20951541;28;20044;-48
2021/06/06 08:47:16;;;;;;;2.70;1.20;;;17.50;99.90;;;;;;20949312;28;20084;-48
2021/06/06 08:57:31;;;;;;;3.22;1.50;;;18.00;99.90;;;;;;20940954;28;20131;-49
2021/06/06 09:07:37;;;;;;;3.58;1.63;;;18.30;99.90;;;;;;20946805;28;20098;-48
2021/06/06 09:17:49;;;;;;;2.10;1.02;;;18.60;99.90;;;;;;20945043;28;20047;-48
2021/06/06 09:28:06;;;;;;;3.47;1.23;;;19.00;99.90;;;;;;20945323;28;20048;-48
2021/06/06 09:38:15;;;;;;;3.13;1.08;;;19.10;99.90;;;;;;20942958;28;20032;-48
2021/06/06 09:48:27;;;;;;;2.30;0.93;;;19.50;99.90;;;;;;20943772;28;20057;-48
2021/06/06 09:58:34;;;;;;;4.18;1.27;;;19.40;99.90;;;;;;20942079;28;20572;-48
2021/06/06 10:08:35;;;;;;;2.57;1.13;;;19.50;99.90;;;;;;20948677;28;20137;-48
2021/06/06 10:18:52;;;;;;;1.50;0.75;;;19.90;99.90;;;;;;20948940;28;20055;-48
2021/06/06 10:29:23;;;;;;;2.70;1.20;;;19.60;99.90;;;;;;20950650;28;20045;-48
2021/06/06 10:39:29;;;;;;;2.58;1.48;;;19.70;99.90;;;;;;20946936;28;20049;-47
2021/06/06 10:49:35;;;;;;;1.75;0.73;;;20.30;99.90;;;;;;20947281;28;20051;-48
2021/06/06 10:59:49;;;;;;;1.10;0.40;;;19.90;99.90;;;;;;20945714;28;20056;-48
2021/06/06 11:10:03;;;;;;;1.85;0.60;;;20.10;99.90;;;;;;20940296;28;20037;-48
2021/06/06 11:20:27;;;;;;;0.80;0.35;;;20.40;99.90;;;;;;20951079;28;20048;-48
2021/06/06 11:30:28;;;;;;;1.45;0.43;;;20.60;99.90;;;;;;20915898;28;20041;-48
2021/06/06 11:40:38;;;;;;;1.92;0.32;;;21.00;99.90;;;;;;20954221;28;20047;-48
2021/06/06 11:50:49;;;;;;;1.10;0.43;;;21.30;99.90;;;;;;20952952;28;20488;-48
2021/06/06 12:01:10;;;;;;;1.50;0.30;;;21.90;99.90;;;;;;20950428;28;20125;-48
2021/06/06 12:11:31;;;;;;;1.00;0.40;;;21.50;99.90;;;;;;20958477;28;20083;-48
2021/06/06 12:21:38;;;;;;;0.80;0.30;;;21.20;99.90;;;;;;20956304;28;21592;-47
2021/06/06 12:31:42;;;;;;;1.20;0.73;;;21.70;99.90;;;;;;20955217;28;20044;-48
2021/06/06 12:41:46;;;;;;;0.57;0.35;;;21.90;99.90;;;;;;20952321;28;20051;-48
2021/06/06 12:51:49;;;;;;;0.90;0.30;;;21.40;99.90;;;;;;20951607;28;20052;-48
2021/06/06 13:02:23;;;;;;;0.93;0.32;;;21.50;99.90;;;;;;20953001;28;20040;-48
2021/06/06 13:12:27;;;;;;;4.13;0.93;;;21.80;99.90;;;;;;20958474;28;20138;-48
2021/06/06 13:22:31;;;;;;;0.38;0.20;;;22.10;99.90;;;;;;20966433;28;20062;-48
2021/06/06 13:32:37;;;;;;;1.95;0.30;;;21.70;99.90;;;;;;21036555;28;20048;-48
2021/06/06 13:42:39;;;;;;;1.02;0.40;;;21.90;99.90;;;;;;21017728;28;20047;-48
2021/06/06 13:52:42;;;;;;;1.88;0.30;;;22.40;99.90;;;;;;21040711;28;20059;-48
2021/06/06 14:02:46;;;;;;;0.80;0.30;;;22.10;99.50;;;;;;21044504;28;20055;-48
2021/06/06 14:12:49;;;;;;;1.38;0.57;;;21.50;99.90;;;;;;21040735;28;20051;-48
2021/06/06 14:22:52;;;;;;;0.80;0.30;;;21.50;99.90;;;;;;21038217;28;20032;-48
2021/06/06 14:32:54;;;;;;;1.13;0.40;;;21.10;99.90;;;;;;21032762;28;20135;-48
2021/06/06 14:42:56;;;;;;;1.08;0.25;;;20.80;99.90;;;;;;21038418;28;20039;-48
2021/06/06 14:53:00;;;;;;;2.47;0.32;;;20.90;99.90;;;;;;21039418;28;20055;-48
2021/06/06 15:03:01;;;;;;;0.47;0.20;;;20.90;99.90;;;;;;21035730;28;20029;-48
2021/06/06 15:13:04;;;;;;;0.65;0.20;;;20.80;99.90;;;;;;21037154;28;20048;-48
2021/06/06 15:23:09;;;;;;;0.95;0.20;;;20.60;99.90;;;;;;21024072;28;20032;-48
2021/06/06 15:33:11;;;;;;;1.17;0.40;;;20.60;99.90;;;;;;21016350;28;20052;-48
2021/06/06 15:43:15;;;;;;;1.88;0.47;;;20.50;99.90;;;;;;21025294;28;20040;-48
2021/06/06 15:53:19;;;;;;;0.80;0.47;;;20.60;99.90;;;;;;21027403;28;20431;-48
2021/06/06 16:03:30;;;;;;;1.27;0.63;;;20.50;99.90;;;;;;21040063;28;20303;-48
2021/06/06 16:13:31;;;;;;;0.45;0.20;;;20.40;99.90;;;;;;21049074;28;20067;-48
2021/06/06 16:23:35;;;;;;;0.43;0.20;;;20.20;99.90;;;;;;21049325;28;20040;-48
2021/06/06 16:33:36;;;;;;;1.13;0.30;;;20.20;99.90;;;;;;21046776;28;20115;-48
2021/06/06 16:43:38;;;;;;;0.57;0.20;;;20.00;99.90;;;;;;21048672;28;20035;-48
2021/06/06 16:53:42;;;;;;;2.13;0.20;;;19.90;99.90;;;;;;21045797;28;20210;-48
2021/06/06 17:03:43;;;;;;;0.30;0.10;;;19.70;99.90;;;;;;21046996;28;20499;-48
2021/06/06 17:13:46;;;;;;;0.40;0.20;;;19.70;99.90;;;;;;21040632;28;20044;-48
2021/06/06 17:23:50;;;;;;;0.82;0.20;;;19.60;99.90;;;;;;21041824;28;20036;-48
2021/06/06 17:33:51;;;;;;;0.95;0.20;;;19.20;99.90;;;;;;21042421;28;20104;-48
2021/06/06 17:43:53;;;;;;;0.28;0.10;;;19.20;99.90;;;;;;21041597;28;20043;-48
2021/06/06 17:53:54;;;;;;;0.15;0.10;;;19.00;99.90;;;;;;21042867;28;20097;-48
2021/06/06 18:03:55;;;;;;;0.52;0.13;;;19.00;99.90;;;;;;21016088;28;20036;-48
2021/06/06 18:13:59;;;;;;;0.10;0.00;;;18.70;99.90;;;;;;21040135;28;20039;-48
2021/06/06 18:24:00;;;;;;;0.10;0.00;;;18.50;97.50;;;;;;21006253;28;20066;-48
2021/06/06 18:34:02;;;;;;;0.00;0.00;;;18.40;96.80;;;;;;21038102;28;20123;-48
2021/06/06 18:44:06;;;;;;;0.50;0.10;;;18.30;97.20;;;;;;21039815;28;20046;-48
2021/06/06 18:54:08;;;;;;;0.10;0.00;;;18.10;97.60;;;;;;21037546;28;20110;-48
2021/06/06 19:04:09;;;;;;;0.17;0.10;;;17.80;99.70;;;;;;21037738;28;20036;-48
2021/06/06 19:14:13;;;;;;;0.20;0.20;;;17.70;99.90;;;;;;21036370;28;20059;-48
2021/06/06 19:24:17;;;;;;;0.43;0.03;;;17.50;99.90;;;;;;21033928;28;20125;-48
2021/06/06 19:34:18;;;;;;;0.40;0.10;;;17.40;99.90;;;;;;21018226;28;20058;-48
2021/06/06 19:44:19;;;;;;;0.25;0.10;;;17.30;99.90;;;;;;21052094;28;20089;-48
2021/06/06 19:54:21;;;;;;;0.50;0.30;;;17.30;99.90;;;;;;21031066;28;20059;-48
2021/06/06 20:04:22;;;;;;;2.15;0.10;;;17.30;99.90;;;;;;21029146;28;20039;-47
2021/06/06 20:14:36;;;;;;;0.68;0.20;;;17.00;99.90;;;;;;21046459;28;20062;-48
2021/06/06 20:24:38;;;;;;;1.35;0.80;;;16.80;99.90;;;;;;21024990;28;20129;-48
2021/06/06 20:34:44;;;;;;;1.08;0.30;;;16.70;99.90;;;;;;21032623;28;20368;-47
2021/06/06 20:44:47;;;;;;;0.50;0.20;;;16.60;99.90;;;;;;21027415;28;20067;-47
2021/06/06 20:54:49;;;;;;;0.88;0.52;;;16.70;99.90;;;;;;21026151;28;20052;-47
2021/06/06 21:04:50;;;;;;;0.40;0.20;;;16.60;99.90;;;;;;21044135;28;20044;-47
2021/06/06 21:14:51;;;;;;;0.90;0.28;;;16.40;99.90;;;;;;21039752;28;20036;-47
2021/06/06 21:24:53;;;;;;;0.50;0.20;;;16.40;99.90;;;;;;21040720;28;20036;-47
2021/06/06 21:34:55;;;;;;;0.50;0.20;;;16.40;99.90;;;;;;21038791;28;20094;-47
2021/06/06 21:44:56;;;;;;;1.73;0.38;;;16.20;99.90;;;;;;21039160;28;20036;-47
2021/06/06 21:54:57;;;;;;;0.90;0.30;;;16.10;99.90;;;;;;21040761;28;20048;-47
2021/06/06 22:04:58;;;;;;;1.50;0.43;;;16.20;99.90;;;;;;21029582;28;20036;-47
2021/06/06 22:14:59;;;;;;;2.15;0.47;;;16.10;99.90;;;;;;21030107;28;20121;-47
2021/06/06 22:25:38;;;;;;;1.25;0.63;;;16.10;99.90;;;;;;21030258;28;20348;-47
2021/06/06 22:36:17;;;;;;;0.80;0.50;;;16.20;99.90;;;;;;21027989;28;20378;-47
2021/06/06 22:46:56;;;;;;;2.97;0.60;;;15.80;99.90;;;;;;21026305;28;20071;-47
2021/06/06 22:57:34;;;;;;;1.73;0.75;;;15.60;99.90;;;;;;21022479;28;20048;-47
2021/06/06 23:07:54;;;;;;;;;;;15.30;99.90;;;;;;21027428;28;21355;-47
2021/06/06 23:17:55;;;;;;;1.35;0.65;;;15.30;99.90;;;;;;21023639;28;19923;-47
2021/06/06 23:27:57;;;;;;;1.70;0.70;;;15.20;99.90;;;;;;21037628;28;20131;-47
2021/06/06 23:37:58;;;;;;;1.25;0.50;;;15.00;99.90;;;;;;21019906;28;20044;-49
2021/06/06 23:48:00;;;;;;;2.22;0.93;;;14.70;99.90;;;;;;21043557;28;20048;-49
2021/06/06 23:58:01;;;;;;;0.85;0.30;;;14.50;99.90;;;;;;21041438;28;20032;-49
